Time;durP1;ratioP1;P1;durP2;ratioP2;P2;SDS_P1;SDS_P2;PMS_P1;PMS_P2;Temp;Humidity;BMP_temperature;BMP_pressure;BME280_temperature;BME280_humidity;BME280_pressure;Samples;Min_cycle;Max_cycle;Signal;HPM_P1;HPM_P2
2021/10/24 00:00:36;;;;;;;18.70;11.43;;;;;;;7.29;88.84;102717.75;5054798;28;20032;-72
2021/10/24 00:03:01;;;;;;;20.13;11.23;;;;;;;7.33;88.24;102714.00;5054904;28;20017;-74
2021/10/24 00:05:26;;;;;;;21.23;11.27;;;;;;;7.33;88.17;102714.00;5036481;28;20094;-73
2021/10/24 00:07:52;;;;;;;20.85;11.15;;;;;;;7.30;88.14;102709.91;5036427;28;20075;-73
2021/10/24 00:10:17;;;;;;;18.30;10.50;;;;;;;7.23;88.92;102701.03;5054150;28;20021;-74
2021/10/24 00:12:42;;;;;;;21.50;11.40;;;;;;;7.21;89.04;102705.47;5054225;28;20017;-73
2021/10/24 00:15:08;;;;;;;23.08;11.25;;;;;;;7.23;88.28;102698.47;5054062;28;20029;-72
2021/10/24 00:17:33;;;;;;;21.00;10.82;;;;;;;7.17;88.70;102699.75;5054005;28;20036;-73
2021/10/24 00:19:59;;;;;;;24.75;11.48;;;;;;;7.15;89.22;102695.66;5053774;28;20076;-72
2021/10/24 00:22:24;;;;;;;23.08;11.45;;;;;;;7.10;89.11;102697.75;5036048;28;20039;-73
2021/10/24 00:24:49;;;;;;;21.30;11.82;;;;;;;7.16;88.89;102698.13;5036052;28;20032;-74
2021/10/24 00:27:14;;;;;;;21.65;10.88;;;;;;;7.18;88.42;102698.81;5053869;28;20083;-72
2021/10/24 00:29:40;;;;;;;19.27;11.20;;;;;;;7.18;88.86;102687.72;5035878;28;20035;-73
2021/10/24 00:32:06;;;;;;;22.33;11.98;;;;;;;7.12;88.11;102701.84;5053671;28;20505;-72
2021/10/24 00:34:31;;;;;;;23.45;11.65;;;;;;;7.13;88.15;102694.94;5053594;28;20082;-73
2021/10/24 00:36:57;;;;;;;20.63;10.88;;;;;;;7.11;88.44;102695.09;5053736;28;20524;-73
2021/10/24 00:39:22;;;;;;;21.38;11.30;;;;;;;7.10;88.85;102693.41;5053643;28;20490;-73
2021/10/24 00:41:47;;;;;;;21.45;12.10;;;;;;;7.07;89.28;102698.81;5053790;28;20017;-72
2021/10/24 00:44:20;;;;;;;20.08;11.02;;;;;;;7.08;88.65;102690.16;5053507;28;20361;-73
2021/10/24 00:46:45;;;;;;;24.02;11.57;;;;;;;7.14;88.71;102689.69;5053528;28;20028;-73
2021/10/24 00:49:10;;;;;;;22.63;11.50;;;;;;;7.12;88.63;102685.59;5053459;28;20395;-73
2021/10/24 00:51:36;;;;;;;24.15;12.02;;;;;;;7.01;88.90;102687.22;5053398;28;20020;-72
2021/10/24 00:54:01;;;;;;;24.17;12.20;;;;;;;7.03;89.27;102691.47;5053388;28;20514;-72
2021/10/24 00:56:27;;;;;;;23.20;11.60;;;;;;;6.94;89.22;102680.13;5036110;28;20021;-73
2021/10/24 00:58:53;;;;;;;20.13;11.40;;;;;;;6.93;89.45;102683.59;5053364;28;20028;-74
2021/10/24 01:01:18;;;;;;;22.42;12.15;;;;;;;6.91;89.34;102678.59;5035513;28;20021;-72
2021/10/24 01:03:44;;;;;;;22.42;12.20;;;;;;;7.03;88.96;102678.59;5053339;28;20033;-72
2021/10/24 01:06:09;;;;;;;24.35;11.65;;;;;;;7.13;88.61;102684.66;5053403;28;20035;-72
2021/10/24 01:08:37;;;;;;;22.80;11.57;;;;;;;7.14;88.76;102676.84;5053580;28;20021;-72
2021/10/24 01:11:02;;;;;;;25.10;12.38;;;;;;;7.10;88.37;102679.75;5035477;28;20167;-72
2021/10/24 01:13:28;;;;;;;18.85;11.68;;;;;;;7.04;88.64;102675.91;5035334;28;20108;-72
2021/10/24 01:16:08;;;;;;;23.15;12.35;;;;;;;6.95;89.23;102679.19;5053185;28;20036;-72
2021/10/24 01:18:33;;;;;;;23.77;12.23;;;;;;;7.02;88.97;102667.50;5053190;28;20088;-72
2021/10/24 01:20:58;;;;;;;21.02;12.30;;;;;;;7.10;88.57;102666.91;5035182;28;20048;-73
2021/10/24 01:23:24;;;;;;;20.73;11.63;;;;;;;7.15;88.34;102663.03;5053373;28;20060;-73
2021/10/24 01:25:52;;;;;;;22.35;12.45;;;;;;;7.14;88.18;102663.19;5035246;28;20021;-73
2021/10/24 01:28:17;;;;;;;25.17;11.38;;;;;;;7.12;88.46;102668.44;5053083;28;20021;-73
2021/10/24 01:30:43;;;;;;;23.98;12.60;;;;;;;7.05;88.72;102664.69;5035220;28;20498;-73
2021/10/24 01:33:09;;;;;;;21.88;11.73;;;;;;;6.96;88.54;102643.09;5052986;28;20028;-72
2021/10/24 01:35:34;;;;;;;21.65;11.45;;;;;;;7.22;87.59;102661.66;5053002;28;20036;-73
2021/10/24 01:38:00;;;;;;;20.33;11.73;;;;;;;7.11;87.90;102661.66;5052936;28;20065;-73
2021/10/24 01:40:25;;;;;;;17.42;11.15;;;;;;;7.21;88.02;102649.72;5035156;28;20021;-73
2021/10/24 01:42:55;;;;;;;19.73;10.77;;;;;;;7.21;87.48;102651.47;5052849;28;20021;-73
2021/10/24 01:45:23;;;;;;;17.48;12.00;;;;;;;7.22;87.74;102647.94;5054209;28;20098;-72
2021/10/24 01:47:50;;;;;;;25.27;11.90;;;;;;;7.16;87.15;102644.13;5038950;28;20365;-72
2021/10/24 01:50:15;;;;;;;19.20;11.20;;;;;;;7.14;87.19;102640.84;5056724;28;20107;-73
2021/10/24 01:52:42;;;;;;;25.67;12.68;;;;;;;7.01;88.05;102647.84;5038754;28;20112;-72
2021/10/24 01:55:10;;;;;;;22.40;11.77;;;;;;;6.97;88.81;102647.28;5057177;28;20028;-73
2021/10/24 01:57:36;;;;;;;19.73;11.57;;;;;;;6.76;88.22;102610.34;5056592;28;20473;-72
2021/10/24 02:00:02;;;;;;;22.15;11.85;;;;;;;6.91;88.45;102636.66;5056767;28;20100;-73
2021/10/24 02:02:27;;;;;;;18.88;10.68;;;;;;;6.82;88.45;102634.78;5056955;28;20049;-73
2021/10/24 02:04:52;;;;;;;24.38;12.43;;;;;;;6.74;88.98;102627.66;5038467;28;20424;-73
2021/10/24 02:07:17;;;;;;;19.40;12.18;;;;;;;6.73;88.90;102628.56;5038376;28;20116;-72
2021/10/24 02:09:42;;;;;;;21.48;12.27;;;;;;;6.58;89.10;102616.91;5056733;28;20179;-73
2021/10/24 02:12:08;;;;;;;20.80;12.30;;;;;;;6.70;88.72;102626.25;5056203;28;20062;-73
2021/10/24 02:14:33;;;;;;;20.25;11.73;;;;;;;6.75;88.94;102634.44;5056148;28;20120;-73
2021/10/24 02:16:58;;;;;;;19.17;11.90;;;;;;;6.72;88.29;102625.19;5056659;28;20028;-73
2021/10/24 02:19:23;;;;;;;20.55;11.68;;;;;;;6.63;88.79;102625.09;5056320;28;20041;-73
2021/10/24 02:21:49;;;;;;;20.00;12.25;;;;;;;6.67;88.70;102613.63;5056680;28;20028;-73
2021/10/24 02:24:14;;;;;;;21.75;12.32;;;;;;;6.57;88.70;102613.53;5056090;28;20036;-73
2021/10/24 02:26:40;;;;;;;20.67;13.05;;;;;;;6.52;88.94;102615.59;5056017;28;20021;-73
2021/10/24 02:29:05;;;;;;;20.63;12.32;;;;;;;6.52;88.74;102610.47;5055995;28;20029;-72
2021/10/24 02:31:30;;;;;;;22.58;11.82;;;;;;;6.42;89.39;102615.50;5055910;28;20475;-72
2021/10/24 02:33:56;;;;;;;24.67;12.90;;;;;;;6.44;88.82;102605.09;5038056;28;20029;-72
2021/10/24 02:36:21;;;;;;;24.75;12.65;;;;;;;6.45;89.31;102615.25;5037971;28;20025;-72
2021/10/24 02:38:46;;;;;;;23.10;12.00;;;;;;;6.50;88.55;102612.34;5055818;28;20472;-73
2021/10/24 02:41:12;;;;;;;23.33;12.45;;;;;;;6.44;89.03;102610.22;5037876;28;20025;-73
2021/10/24 02:43:37;;;;;;;21.85;11.75;;;;;;;6.39;88.76;102605.44;5037767;28;20463;-73
2021/10/24 02:46:02;;;;;;;22.13;12.82;;;;;;;6.44;89.14;102600.75;5055670;28;20021;-73
2021/10/24 02:48:27;;;;;;;19.48;12.38;;;;;;;6.39;88.79;102599.47;5055663;28;20413;-72
2021/10/24 02:50:53;;;;;;;23.27;12.65;;;;;;;6.38;88.35;102597.84;5055632;28;20025;-72
2021/10/24 02:53:18;;;;;;;19.23;12.00;;;;;;;6.29;89.10;102591.66;5055485;28;20040;-72
2021/10/24 02:55:43;;;;;;;20.15;11.75;;;;;;;6.27;89.32;102594.34;5055471;28;20541;-72
2021/10/24 02:58:09;;;;;;;20.73;12.73;;;;;;;6.18;89.61;102597.56;5054385;28;20052;-73
2021/10/24 03:00:34;;;;;;;22.17;13.02;;;;;;;6.19;89.40;102593.28;5055463;28;20051;-73
2021/10/24 03:02:59;;;;;;;24.08;13.25;;;;;;;6.16;89.36;102590.91;5055358;28;20375;-73
2021/10/24 03:05:24;;;;;;;22.65;12.82;;;;;;;6.23;88.95;102589.53;5055341;28;20123;-73
2021/10/24 03:07:50;;;;;;;21.08;12.50;;;;;;;6.24;88.90;102589.44;5055328;28;20490;-73
2021/10/24 03:10:15;;;;;;;18.52;12.40;;;;;;;6.18;89.05;102586.50;5055206;28;20474;-73
2021/10/24 03:12:40;;;;;;;20.25;12.10;;;;;;;6.12;88.83;102582.63;5055099;28;20455;-72
2021/10/24 03:15:06;;;;;;;20.95;13.40;;;;;;;6.03;89.42;102584.13;5037244;28;20029;-73
2021/10/24 03:17:31;;;;;;;23.95;12.98;;;;;;;6.15;89.21;102582.41;5055165;28;20029;-72
2021/10/24 03:19:56;;;;;;;23.38;13.05;;;;;;;6.13;89.12;102576.56;5054956;28;20091;-73
2021/10/24 03:22:22;;;;;;;20.25;12.45;;;;;;;6.21;88.52;102571.66;5037239;28;20051;-73
2021/10/24 03:24:47;;;;;;;24.33;12.65;;;;;;;6.17;88.84;102582.28;5055003;28;20120;-72
2021/10/24 03:27:13;;;;;;;19.10;12.43;;;;;;;6.14;88.79;102578.19;5037032;28;20021;-73
2021/10/24 03:29:38;;;;;;;19.55;12.63;;;;;;;5.95;88.42;102554.81;5054842;28;20071;-72
2021/10/24 03:32:04;;;;;;;20.60;12.73;;;;;;;6.06;88.89;102577.94;5054994;28;20025;-73
2021/10/24 03:34:29;;;;;;;22.95;12.63;;;;;;;6.03;88.93;102580.75;5036814;28;20033;-73
2021/10/24 03:36:54;;;;;;;24.70;13.00;;;;;;;6.05;88.53;102578.88;5055110;28;20025;-73
2021/10/24 03:39:20;;;;;;;21.02;12.77;;;;;;;6.06;88.75;102575.38;5054596;28;20032;-72
2021/10/24 03:41:45;;;;;;;20.05;12.45;;;;;;;6.04;88.63;102574.66;5036615;28;20028;-72
2021/10/24 03:44:10;;;;;;;25.23;13.07;;;;;;;6.00;88.62;102570.72;5054794;28;20024;-73
2021/10/24 03:46:36;;;;;;;21.73;12.90;;;;;;;5.95;88.70;102571.03;5054445;28;20399;-71
2021/10/24 03:49:02;;;;;;;19.70;12.63;;;;;;;5.91;88.84;102579.88;5037135;28;20104;-73
2021/10/24 03:51:28;;;;;;;23.80;12.88;;;;;;;5.98;88.72;102570.81;5036494;28;20082;-73
2021/10/24 03:53:54;;;;;;;24.80;12.82;;;;;;;5.97;88.65;102566.63;5036435;28;20045;-72
2021/10/24 03:56:19;;;;;;;19.40;12.57;;;;;;;5.94;88.72;102563.47;5054223;28;20020;-73
2021/10/24 03:58:45;;;;;;;19.13;12.60;;;;;;;5.93;88.74;102566.91;5036689;28;20124;-73
2021/10/24 04:01:10;;;;;;;18.60;12.70;;;;;;;5.84;88.98;102564.09;5054132;28;20024;-73
2021/10/24 04:03:36;;;;;;;20.75;13.13;;;;;;;5.79;89.23;102565.38;5054106;28;20031;-73
2021/10/24 04:06:03;;;;;;;24.27;13.52;;;;;;;5.75;89.78;102575.00;5036317;28;20036;-73
2021/10/24 04:08:28;;;;;;;24.20;12.60;;;;;;;5.74;89.69;102570.81;5053776;28;20482;-73
2021/10/24 04:10:53;;;;;;;24.83;12.95;;;;;;;5.54;89.88;102544.06;5054033;28;20040;-73
2021/10/24 04:13:19;;;;;;;23.00;13.00;;;;;;;5.73;89.58;102569.19;5054007;28;20028;-72
2021/10/24 04:15:45;;;;;;;24.70;13.27;;;;;;;5.74;89.18;102563.13;5054007;28;20025;-73
2021/10/24 04:18:10;;;;;;;20.73;12.77;;;;;;;5.70;89.85;102566.84;5053876;28;20484;-72
2021/10/24 04:20:36;;;;;;;21.60;12.93;;;;;;;5.71;89.47;102571.06;5053754;28;20076;-73
2021/10/24 04:23:01;;;;;;;20.20;13.23;;;;;;;5.61;88.96;102546.97;5053775;28;20468;-73
2021/10/24 04:25:26;;;;;;;21.20;12.95;;;;;;;5.65;89.86;102561.22;5053849;28;20068;-72
2021/10/24 04:27:53;;;;;;;25.50;13.48;;;;;;;5.69;89.85;102556.69;5035902;28;20029;-73
2021/10/24 04:30:18;;;;;;;21.45;13.43;;;;;;;5.78;89.59;102554.28;5053705;28;20025;-73
2021/10/24 04:32:44;;;;;;;23.63;13.77;;;;;;;5.81;89.06;102550.66;5035629;28;20467;-73
2021/10/24 04:35:11;;;;;;;22.70;13.13;;;;;;;5.74;88.88;102559.75;5053589;28;20068;-72
2021/10/24 04:37:37;;;;;;;22.67;12.88;;;;;;;5.78;89.59;102546.59;5053621;28;20528;-72
2021/10/24 04:40:04;;;;;;;21.00;13.02;;;;;;;5.80;88.90;102554.97;5053643;28;20025;-73
2021/10/24 04:42:29;;;;;;;22.00;13.20;;;;;;;5.72;88.85;102559.84;5053470;28;20031;-73
2021/10/24 04:44:56;;;;;;;22.25;13.05;;;;;;;5.68;89.29;102550.75;5053541;28;20021;-73
2021/10/24 04:47:21;;;;;;;20.85;12.75;;;;;;;5.64;89.81;102557.84;5035625;28;20056;-74
2021/10/24 04:49:47;;;;;;;23.83;13.10;;;;;;;5.68;90.17;102561.00;5053556;28;20463;-74
2021/10/24 04:52:12;;;;;;;22.42;13.40;;;;;;;5.68;89.36;102553.31;5053325;28;20021;-73
2021/10/24 04:54:37;;;;;;;22.02;12.98;;;;;;;5.75;89.11;102540.84;5053406;28;20123;-72
2021/10/24 04:57:03;;;;;;;22.70;13.32;;;;;;;5.69;89.19;102554.13;5053399;28;20033;-73
2021/10/24 04:59:28;;;;;;;20.83;13.00;;;;;;;5.61;89.89;102549.53;5053290;28;20075;-73
2021/10/24 05:01:54;;;;;;;20.00;12.85;;;;;;;5.66;89.48;102545.72;5053286;28;20104;-73
2021/10/24 05:04:19;;;;;;;20.67;12.60;;;;;;;5.64;89.07;102542.47;5035271;28;20029;-73
2021/10/24 05:06:45;;;;;;;22.30;12.25;;;;;;;5.65;89.02;102550.97;5035361;28;20154;-73
2021/10/24 05:09:10;;;;;;;19.65;13.18;;;;;;;5.59;89.42;102539.41;5035324;28;20485;-73
2021/10/24 05:11:35;;;;;;;23.45;13.07;;;;;;;5.54;89.74;102535.53;5053132;28;20025;-74
2021/10/24 05:14:03;;;;;;;20.70;13.10;;;;;;;5.42;89.13;102507.28;5035345;28;20506;-74
2021/10/24 05:16:28;;;;;;;21.60;12.77;;;;;;;5.49;89.60;102530.72;5053328;28;20099;-73
2021/10/24 05:18:54;;;;;;;23.90;13.45;;;;;;;5.42;89.45;102529.56;5035391;28;20415;-73
2021/10/24 05:21:19;;;;;;;25.42;14.02;;;;;;;5.41;90.27;102525.38;5056297;28;20036;-73
2021/10/24 05:23:44;;;;;;;20.42;12.52;;;;;;;5.39;89.74;102528.03;5039355;28;20119;-74
2021/10/24 05:26:10;;;;;;;17.60;12.30;;;;;;;5.42;89.96;102527.81;5057395;28;20016;-73
2021/10/24 05:28:35;;;;;;;22.45;12.80;;;;;;;5.48;89.77;102523.16;5057099;28;20082;-72
2021/10/24 05:31:01;;;;;;;22.60;12.55;;;;;;;5.43;89.81;102521.72;5057056;28;20025;-73
2021/10/24 05:33:26;;;;;;;24.35;13.75;;;;;;;5.49;89.83;102519.66;5039032;28;20382;-74
2021/10/24 05:35:53;;;;;;;22.83;13.23;;;;;;;5.49;89.20;102523.03;5039051;28;20033;-74
2021/10/24 05:38:20;;;;;;;21.02;12.70;;;;;;;5.42;89.54;102511.59;5039210;28;20025;-73
2021/10/24 05:40:46;;;;;;;18.95;12.25;;;;;;;5.33;89.57;102514.84;5057127;28;20025;-73
2021/10/24 05:43:11;;;;;;;20.30;13.13;;;;;;;5.38;89.63;102507.59;5038780;28;20414;-73
2021/10/24 05:45:37;;;;;;;21.30;12.80;;;;;;;5.34;89.81;102503.66;5056908;28;20025;-72
2021/10/24 05:48:03;;;;;;;20.70;12.73;;;;;;;5.35;89.67;102500.13;5057278;28;20460;-72
2021/10/24 05:50:29;;;;;;;21.20;12.38;;;;;;;5.37;89.94;102501.66;5039246;28;20407;-73
2021/10/24 05:52:54;;;;;;;18.58;12.02;;;;;;;5.34;89.62;102499.31;5056620;28;20103;-73
2021/10/24 05:55:21;;;;;;;18.50;12.10;;;;;;;5.36;89.87;102491.53;5038901;28;20120;-72
2021/10/24 05:57:46;;;;;;;21.33;12.82;;;;;;;5.25;89.68;102463.28;5038688;28;20021;-73
2021/10/24 06:00:12;;;;;;;17.58;11.93;;;;;;;5.32;89.42;102475.56;5038671;28;20024;-73
2021/10/24 06:02:37;;;;;;;18.45;12.15;;;;;;;5.34;88.85;102462.63;5056427;28;20023;-72
2021/10/24 06:05:03;;;;;;;19.30;11.80;;;;;;;5.39;88.94;102469.06;5056368;28;20056;-73
2021/10/24 06:07:29;;;;;;;23.50;12.30;;;;;;;5.12;89.72;102445.41;5056449;28;20052;-74
2021/10/24 06:10:00;;;;;;;18.35;11.45;;;;;;;5.22;90.15;102458.38;5056375;28;20028;-74
2021/10/24 06:15:01;;;;;;;20.77;11.82;;;;;;;5.25;89.23;102458.16;5056635;28;20387;-73
2021/10/24 06:17:27;;;;;;;18.02;11.63;;;;;;;5.26;89.44;102452.91;5056825;28;20021;-73
2021/10/24 06:19:52;;;;;;;21.58;12.20;;;;;;;5.22;89.88;102450.69;5056047;28;20072;-72
2021/10/24 06:22:18;;;;;;;19.08;11.80;;;;;;;5.19;89.86;102447.41;5056501;28;20071;-72
2021/10/24 06:24:43;;;;;;;20.90;12.30;;;;;;;5.17;89.57;102454.41;5056052;28;20032;-73
2021/10/24 06:27:08;;;;;;;20.90;11.52;;;;;;;5.04;90.43;102451.09;5038318;28;20020;-73
2021/10/24 06:29:34;;;;;;;20.48;11.73;;;;;;;5.25;89.21;102458.97;5058813;28;20033;-73
2021/10/24 06:31:59;;;;;;;20.92;11.68;;;;;;;5.24;89.07;102454.78;5055616;28;20108;-74
2021/10/24 06:34:25;;;;;;;18.50;11.38;;;;;;;5.25;88.87;102451.28;5055886;28;20386;-73
2021/10/24 06:36:51;;;;;;;23.88;12.20;;;;;;;5.27;89.13;102444.31;5055891;28;20025;-73
2021/10/24 06:39:16;;;;;;;18.33;10.80;;;;;;;5.34;88.48;102445.50;5055789;28;20025;-73
2021/10/24 06:41:42;;;;;;;20.42;11.63;;;;;;;5.25;88.51;102443.59;5055670;28;20463;-73
2021/10/24 06:44:07;;;;;;;19.60;11.90;;;;;;;5.35;89.13;102449.72;5055700;28;20017;-72
2021/10/24 06:46:32;;;;;;;19.08;11.88;;;;;;;5.31;88.66;102448.28;5038694;28;20032;-74
2021/10/24 06:48:57;;;;;;;18.13;11.30;;;;;;;5.40;88.24;102445.03;5055509;28;20025;-73
2021/10/24 06:51:23;;;;;;;20.98;11.30;;;;;;;5.42;88.13;102458.56;5055316;28;20117;-73
2021/10/24 06:53:48;;;;;;;17.10;10.85;;;;;;;5.48;88.09;102452.19;5055526;28;20108;-73
2021/10/24 06:56:13;;;;;;;18.67;10.68;;;;;;;5.41;88.32;102451.00;5037640;28;20513;-73
2021/10/24 06:58:39;;;;;;;17.73;10.23;;;;;;;5.52;88.12;102453.56;5037586;28;20035;-73
2021/10/24 07:01:04;;;;;;;15.40;10.02;;;;;;;5.59;87.33;102449.66;5055888;28;20053;-73
2021/10/24 07:03:29;;;;;;;20.13;10.40;;;;;;;5.80;86.61;102454.94;5037597;28;20021;-73
2021/10/24 07:05:54;;;;;;;16.60;10.20;;;;;;;5.89;86.02;102458.56;5055188;28;20021;-73
2021/10/24 07:08:20;;;;;;;16.92;10.20;;;;;;;5.82;86.32;102457.38;5055216;28;20471;-73
2021/10/24 07:10:45;;;;;;;18.17;10.80;;;;;;;5.99;85.78;102463.84;5037606;28;20025;-73
2021/10/24 07:13:10;;;;;;;15.65;10.05;;;;;;;5.86;86.41;102459.59;5055110;28;20104;-73
2021/10/24 07:15:36;;;;;;;18.65;10.10;;;;;;;6.06;85.62;102454.75;5054990;28;20482;-74
2021/10/24 07:18:01;;;;;;;17.90;9.52;;;;;;;6.16;84.65;102454.84;5037006;28;20068;-73
2021/10/24 07:24:01;;;;;;;20.48;8.40;;;;;;;7.25;80.45;102454.88;5055183;28;20048;-73
2021/10/24 07:26:26;;;;;;;12.15;8.63;;;;;;;8.09;77.85;102458.19;5055042;28;20483;-73
2021/10/24 07:28:52;;;;;;;16.02;8.02;;;;;;;8.22;76.84;102460.53;5036913;28;20471;-73
2021/10/24 07:31:17;;;;;;;13.52;7.88;;;;;;;8.83;74.97;102457.03;5055189;28;20059;-73
2021/10/24 07:33:42;;;;;;;18.25;7.63;;;;;;;9.83;69.25;102453.28;5036676;28;20013;-74
2021/10/24 07:36:07;;;;;;;11.13;6.80;;;;;;;11.58;64.57;102458.09;5055501;28;20071;-73
2021/10/24 07:38:34;;;;;;;11.45;6.60;;;;;;;12.35;61.59;102440.03;5057562;28;20104;-74
2021/10/24 07:40:59;;;;;;;10.80;6.57;;;;;;;12.95;58.67;102451.97;5055515;28;20505;-74
2021/10/24 07:43:25;;;;;;;10.60;6.53;;;;;;;13.49;57.00;102442.69;5039418;28;20013;-76
2021/10/24 07:45:52;;;;;;;10.30;6.50;;;;;;;13.64;56.66;102445.41;5054703;28;20025;-74
2021/10/24 07:48:18;;;;;;;9.85;6.07;;;;;;;14.23;54.16;102442.41;5054378;28;20430;-72
2021/10/24 07:50:43;;;;;;;9.68;5.95;;;;;;;14.86;52.35;102451.00;5054293;28;20035;-73
2021/10/24 07:53:10;;;;;;;8.20;5.28;;;;;;;14.56;52.58;102440.50;5054301;28;20422;-74
2021/10/24 07:55:35;;;;;;;8.15;5.50;;;;;;;14.22;53.37;102444.22;5054212;28;20020;-73
2021/10/24 07:58:02;;;;;;;8.88;4.93;;;;;;;15.62;49.85;102415.28;5059012;28;20074;-77
2021/10/24 08:00:27;;;;;;;11.95;5.10;;;;;;;15.78;49.06;102437.78;5038916;28;20059;-75
2021/10/24 08:02:52;;;;;;;7.65;5.13;;;;;;;15.59;49.47;102441.69;5054071;28;20433;-72
2021/10/24 08:05:18;;;;;;;7.45;4.63;;;;;;;15.89;49.54;102431.31;5054109;28;20033;-74
2021/10/24 08:07:44;;;;;;;10.98;4.97;;;;;;;16.38;47.34;102430.66;5054046;28;20116;-73
2021/10/24 08:10:10;;;;;;;9.23;5.50;;;;;;;14.14;52.99;102417.44;5055264;28;20503;-73
2021/10/24 08:12:43;;;;;;;8.50;5.43;;;;;;;10.17;65.21;102412.22;5036062;28;20032;-73
2021/10/24 08:15:10;;;;;;;11.32;5.47;;;;;;;9.38;69.13;102413.47;5054435;28;20028;-72
2021/10/24 08:17:37;;;;;;;9.63;6.10;;;;;;;9.08;70.81;102411.84;5035830;28;20071;-72
2021/10/24 08:20:04;;;;;;;12.82;6.07;;;;;;;8.92;71.68;102430.47;5053954;28;20060;-72
2021/10/24 08:22:31;;;;;;;12.40;6.32;;;;;;;8.70;72.32;102417.84;5036973;28;20116;-73
2021/10/24 08:24:56;;;;;;;10.73;6.25;;;;;;;8.53;72.78;102414.16;5055068;28;20182;-73
2021/10/24 08:27:21;;;;;;;9.23;6.15;;;;;;;8.50;73.66;102407.50;5021592;28;20113;-72
2021/10/24 08:29:47;;;;;;;14.65;6.38;;;;;;;10.09;68.90;102412.94;5057787;28;20020;-73
2021/10/24 08:32:12;;;;;;;7.70;5.00;;;;;;;13.09;58.02;102433.94;5056685;28;20028;-73
2021/10/24 08:34:40;;;;;;;10.70;5.18;;;;;;;15.91;50.64;102416.25;5040104;28;20509;-73
2021/10/24 08:37:06;;;;;;;12.30;5.10;;;;;;;16.78;47.41;102434.47;5058264;28;20025;-74
2021/10/24 08:39:32;;;;;;;9.80;4.80;;;;;;;15.92;49.26;102418.72;5054519;28;20021;-73
2021/10/24 08:41:57;;;;;;;8.25;4.50;;;;;;;16.09;48.11;102424.53;5036183;28;20023;-73
2021/10/24 08:44:25;;;;;;;10.45;4.53;;;;;;;17.34;45.81;102433.66;5053748;28;20048;-74
2021/10/24 08:46:51;;;;;;;11.73;5.15;;;;;;;16.75;45.46;102406.09;5036056;28;20024;-74
2021/10/24 08:49:16;;;;;;;6.63;4.30;;;;;;;17.89;44.08;102426.72;5053936;28;20471;-72
2021/10/24 08:51:42;;;;;;;8.77;4.10;;;;;;;18.53;41.95;102432.53;5055151;28;20021;-73
2021/10/24 08:54:08;;;;;;;7.65;4.32;;;;;;;18.73;41.65;102404.56;5055398;28;20048;-74
2021/10/24 08:56:34;;;;;;;7.88;3.95;;;;;;;17.38;43.18;102429.69;5053685;28;20074;-73
2021/10/24 08:59:00;;;;;;;5.90;3.80;;;;;;;20.06;38.53;102407.66;5035358;28;20043;-74
2021/10/24 09:01:27;;;;;;;7.05;3.85;;;;;;;18.55;41.29;102397.28;5053436;28;20021;-73
2021/10/24 09:04:09;;;;;;;6.57;4.00;;;;;;;18.74;40.74;102400.97;5053391;28;20025;-73
2021/10/24 09:06:58;;;;;;;9.32;3.88;;;;;;;18.97;39.89;102391.88;5053315;28;20029;-74
2021/10/24 09:09:26;;;;;;;7.78;3.83;;;;;;;20.63;37.45;102381.47;5054157;28;20025;-73
2021/10/24 09:11:55;;;;;;;6.18;3.78;;;;;;;20.74;36.62;102382.56;5053344;28;20037;-73
2021/10/24 09:14:55;;;;;;;7.43;3.65;;;;;;;20.85;37.02;102376.59;5053661;28;20130;-73
2021/10/24 09:17:27;;;;;;;6.82;3.67;;;;;;;20.61;35.72;102378.25;5022074;28;20480;-73
2021/10/24 09:19:55;;;;;;;8.23;3.70;;;;;;;21.26;35.31;102380.44;5035063;28;20484;-73
2021/10/24 09:22:28;;;;;;;6.80;3.30;;;;;;;21.56;35.18;102370.00;5053223;28;20382;-73
2021/10/24 09:25:14;;;;;;;7.55;3.40;;;;;;;21.83;34.07;102375.69;5035526;28;20032;-74
2021/10/24 09:27:45;;;;;;;5.90;3.78;;;;;;;19.77;37.26;102372.31;5035174;28;20446;-73
2021/10/24 09:30:31;;;;;;;6.93;3.50;;;;;;;21.38;34.56;102362.13;5035158;28;20074;-73
2021/10/24 09:33:05;;;;;;;6.25;3.63;;;;;;;21.81;33.54;102355.91;5053230;28;20424;-74
2021/10/24 09:35:36;;;;;;;6.40;3.33;;;;;;;22.50;32.45;102374.75;5053086;28;20029;-75
2021/10/24 09:38:04;;;;;;;6.67;3.53;;;;;;;24.16;30.29;102354.81;5035859;28;20063;-74
2021/10/24 09:40:39;;;;;;;6.88;3.45;;;;;;;22.66;32.23;102345.06;5053382;28;20025;-73
2021/10/24 09:43:17;;;;;;;6.18;3.20;;;;;;;22.91;32.07;102346.66;5053505;28;20032;-74
2021/10/24 09:45:51;;;;;;;7.63;3.45;;;;;;;24.22;30.18;102345.91;5053379;28;20109;-74
2021/10/24 09:48:20;;;;;;;7.53;3.40;;;;;;;21.51;33.53;102330.41;5052919;28;20021;-73
2021/10/24 09:50:51;;;;;;;5.80;3.45;;;;;;;22.77;32.41;102353.19;5052874;28;20029;-74
2021/10/24 09:53:26;;;;;;;5.97;3.13;;;;;;;24.59;30.33;102345.44;5053414;28;20056;-73
2021/10/24 09:59:16;;;;;;;7.88;3.30;;;;;;;24.39;29.01;102349.34;5053000;28;20551;-73
2021/10/24 10:01:42;;;;;;;6.28;3.30;;;;;;;25.15;28.66;102351.50;5035077;28;20481;-73
2021/10/24 10:04:08;;;;;;;7.68;2.97;;;;;;;24.80;28.35;102325.34;5052719;28;20103;-73
2021/10/24 10:06:33;;;;;;;6.85;3.08;;;;;;;24.29;29.17;102333.38;5036638;28;20039;-73
2021/10/24 10:08:59;;;;;;;6.05;3.20;;;;;;;24.48;28.95;102344.50;5038353;28;20530;-73
2021/10/24 10:11:35;;;;;;;6.87;3.30;;;;;;;25.51;27.66;102344.72;5038348;28;20368;-73
2021/10/24 10:14:12;;;;;;;7.53;3.10;;;;;;;24.77;28.11;102338.03;5038277;28;20318;-73
2021/10/24 10:16:41;;;;;;;8.98;3.60;;;;;;;22.50;32.07;102324.69;5056152;28;20039;-73
2021/10/24 10:19:12;;;;;;;5.55;3.30;;;;;;;24.40;28.88;102323.72;5055936;28;20025;-72
2021/10/24 10:21:43;;;;;;;7.60;3.30;;;;;;;23.71;30.34;102323.97;5038849;28;20475;-72
2021/10/24 10:24:29;;;;;;;8.02;3.63;;;;;;;25.86;27.26;102324.94;5055959;28;20025;-72
2021/10/24 10:26:55;;;;;;;7.57;3.80;;;;;;;23.91;29.51;102321.69;5027546;28;20098;-72
2021/10/24 10:29:49;;;;;;;8.32;3.80;;;;;;;23.41;30.07;102317.88;5055856;28;20100;-72
2021/10/24 10:32:17;;;;;;;8.07;3.85;;;;;;;22.17;32.25;102322.56;5056159;28;20037;-72
2021/10/24 10:34:58;;;;;;;5.88;3.53;;;;;;;;;;5038204;28;20151;-72
2021/10/24 10:37:43;;;;;;;7.28;4.15;;;;;;;22.44;32.23;102304.53;5055659;28;20029;-72
2021/10/24 10:40:17;;;;;;;9.40;4.40;;;;;;;22.29;32.66;102305.78;5038033;28;20037;-72
2021/10/24 10:42:43;;;;;;;9.25;4.30;;;;;;;22.17;32.35;102283.91;5037590;28;20031;-72
2021/10/24 10:45:15;;;;;;;8.80;4.22;;;;;;;20.85;35.18;102318.00;5037521;28;20386;-72
2021/10/24 10:47:58;;;;;;;8.32;4.43;;;;;;;21.49;33.39;102303.53;5037671;28;20124;-71
2021/10/24 10:50:38;;;;;;;;;;;;;;;21.34;34.60;102303.88;5056369;28;20020;-72
2021/10/24 10:53:06;;;;;;;8.15;4.53;;;;;;;21.47;33.66;102276.66;5037332;28;19962;-72
2021/10/24 10:55:56;;;;;;;7.68;4.13;;;;;;;22.96;31.80;102302.78;5055984;28;20025;-71
2021/10/24 10:58:28;;;;;;;10.18;4.50;;;;;;;22.88;32.42;102295.22;5037574;28;20020;-71
2021/10/24 11:00:55;;;;;;;8.57;4.70;;;;;;;22.44;32.06;102291.34;5055386;28;20028;-72
2021/10/24 11:03:46;;;;;;;8.23;4.13;;;;;;;21.19;33.19;102295.59;5037498;28;20064;-72
2021/10/24 11:06:46;;;;;;;8.05;4.10;;;;;;;21.68;32.69;102291.13;5055366;28;20021;-73
2021/10/24 11:09:32;;;;;;;11.98;4.57;;;;;;;22.93;30.60;102284.78;5055262;28;20028;-72
2021/10/24 11:11:58;;;;;;;9.02;4.70;;;;;;;23.08;31.04;102283.50;5054967;28;20033;-72
2021/10/24 11:14:32;;;;;;;7.72;4.63;;;;;;;23.18;31.28;102271.28;5055025;28;20387;-71
2021/10/24 11:16:59;;;;;;;8.95;4.60;;;;;;;23.92;30.05;102273.13;5036850;28;20035;-73
2021/10/24 11:19:32;;;;;;;8.13;4.32;;;;;;;24.88;28.02;102285.28;5054159;28;20098;-72
2021/10/24 11:22:12;;;;;;;8.52;4.50;;;;;;;22.17;31.93;102275.19;5055059;28;20036;-72
2021/10/24 11:24:39;;;;;;;7.80;4.25;;;;;;;23.73;29.73;102272.53;5037140;28;20017;-73
2021/10/24 11:27:06;;;;;;;9.80;4.20;;;;;;;23.98;30.21;102274.00;5054854;28;20040;-73
2021/10/24 11:29:32;;;;;;;6.90;4.25;;;;;;;23.43;30.42;102270.16;5054901;28;20035;-73